Time;durP1;ratioP1;P1;durP2;ratioP2;P2;SDS_P1;SDS_P2;PMS_P1;PMS_P2;Temp;Humidity;BMP_temperature;BMP_pressure;BME280_temperature;BME280_humidity;BME280_pressure;Samples;Min_cycle;Max_cycle;Signal;HPM_P1;HPM_P2
2022/12/20 00:01:27;;;;;;;29.98;20.88;;;1.70;99.90;;;;;;4997278;28;20211;-81
2022/12/20 00:03:57;;;;;;;30.65;21.70;;;1.60;99.90;;;;;;4996919;28;20199;-81
2022/12/20 00:06:24;;;;;;;33.78;20.42;;;1.60;99.90;;;;;;4996288;28;20301;-82
2022/12/20 00:08:59;;;;;;;26.50;18.48;;;1.50;99.90;;;;;;4996927;28;20244;-81
2022/12/20 00:11:28;;;;;;;28.50;19.20;;;1.40;99.90;;;;;;5001123;28;20205;-83
2022/12/20 00:13:56;;;;;;;27.92;20.33;;;1.40;99.90;;;;;;5010134;28;20219;-84
2022/12/20 00:16:25;;;;;;;33.70;20.85;;;1.40;99.90;;;;;;5014152;28;20215;-83
2022/12/20 00:19:03;;;;;;;26.58;19.92;;;1.30;99.90;;;;;;5002996;28;20251;-81
2022/12/20 00:21:31;;;;;;;31.85;21.55;;;1.30;99.90;;;;;;5002765;28;20193;-82
2022/12/20 00:23:59;;;;;;;36.47;22.02;;;1.40;99.90;;;;;;4998506;28;20214;-85
2022/12/20 00:26:29;;;;;;;37.92;22.38;;;2.30;99.90;;;;;;5075165;28;20466;-83
2022/12/20 00:28:56;;;;;;;31.67;21.95;;;1.80;99.90;;;;;;4997498;28;20241;-85
2022/12/20 00:31:25;;;;;;;33.72;20.08;;;1.90;99.90;;;;;;4996764;28;20218;-84
2022/12/20 00:33:53;;;;;;;34.70;22.65;;;1.70;99.90;;;;;;4997556;28;20210;-82
2022/12/20 00:36:22;;;;;;;27.05;18.75;;;1.70;99.90;;;;;;4997459;28;20432;-82
2022/12/20 00:38:51;;;;;;;30.25;18.98;;;1.60;99.90;;;;;;4998489;28;20268;-83
2022/12/20 00:41:21;;;;;;;28.80;20.08;;;1.60;99.90;;;;;;4997872;28;20217;-84
2022/12/20 00:43:49;;;;;;;34.33;20.48;;;1.60;99.90;;;;;;4993026;28;20214;-88
2022/12/20 00:46:17;;;;;;;36.17;21.75;;;1.60;99.90;;;;;;4997068;28;20234;-84
2022/12/20 00:48:45;;;;;;;28.02;19.67;;;1.60;99.90;;;;;;4997739;28;20712;-83
2022/12/20 00:51:15;;;;;;;31.08;20.75;;;1.60;99.90;;;;;;4998954;28;20204;-83
2022/12/20 00:53:44;;;;;;;29.83;20.52;;;1.70;99.90;;;;;;5064298;28;20209;-84
2022/12/20 00:56:11;;;;;;;32.60;21.65;;;1.80;99.90;;;;;;4998296;28;20247;-84
2022/12/20 00:58:40;;;;;;;35.83;21.83;;;1.80;99.90;;;;;;4996961;28;20236;-84
2022/12/20 01:01:22;;;;;;;32.13;20.08;;;2.00;99.90;;;;;;4996914;28;20214;-85
2022/12/20 01:03:50;;;;;;;43.35;26.80;;;2.10;99.90;;;;;;5051436;28;20274;-87
2022/12/20 01:06:18;;;;;;;33.75;22.55;;;2.20;99.90;;;;;;5046999;28;20521;-85
2022/12/20 01:08:45;;;;;;;30.90;22.55;;;2.10;99.90;;;;;;4988791;28;20277;-85
2022/12/20 01:11:13;;;;;;;34.45;20.63;;;2.00;99.90;;;;;;4997234;28;20210;-86
2022/12/20 01:13:44;;;;;;;34.05;22.63;;;1.90;99.90;;;;;;4998621;28;20417;-85
2022/12/20 01:16:17;;;;;;;27.25;19.38;;;1.70;99.90;;;;;;4999653;28;20203;-87
2022/12/20 01:18:44;;;;;;;33.33;21.13;;;1.50;99.90;;;;;;5000763;28;20580;-84
2022/12/20 01:21:13;;;;;;;29.55;20.25;;;1.60;99.90;;;;;;5005214;28;20255;-85
2022/12/20 01:23:41;;;;;;;28.88;20.73;;;1.60;99.90;;;;;;5016641;28;20396;-85
2022/12/20 01:26:15;;;;;;;26.83;18.80;;;1.50;99.90;;;;;;4997892;28;20229;-85
2022/12/20 01:28:45;;;;;;;26.77;19.10;;;1.50;99.90;;;;;;4998584;28;20209;-85
2022/12/20 01:31:15;;;;;;;32.03;19.45;;;1.40;99.90;;;;;;5041591;28;20259;-85
2022/12/20 01:33:43;;;;;;;35.17;19.67;;;1.30;99.90;;;;;;5000762;28;20247;-84
2022/12/20 01:36:17;;;;;;;32.58;21.15;;;1.40;99.90;;;;;;4999771;28;20214;-83
2022/12/20 01:38:44;;;;;;;34.42;23.42;;;1.40;99.90;;;;;;5001678;28;20220;-85
2022/12/20 01:41:20;;;;;;;29.52;19.10;;;1.40;99.90;;;;;;5009059;28;20213;-84
2022/12/20 01:43:53;;;;;;;27.15;18.38;;;1.80;99.90;;;;;;5076105;28;20210;-83
2022/12/20 01:46:24;;;;;;;30.10;18.98;;;1.50;99.90;;;;;;5009115;28;20197;-84
2022/12/20 01:48:56;;;;;;;27.02;18.50;;;1.60;99.90;;;;;;5005515;28;20415;-82
2022/12/20 01:51:24;;;;;;;28.85;19.08;;;1.60;99.90;;;;;;4990930;28;20509;-86
2022/12/20 01:54:00;;;;;;;31.45;18.42;;;1.70;99.90;;;;;;5002802;28;20194;-84
2022/12/20 01:56:27;;;;;;;28.05;19.10;;;1.70;99.90;;;;;;5013418;28;20190;-84
2022/12/20 01:58:56;;;;;;;25.90;17.50;;;1.70;99.90;;;;;;5003068;28;20206;-86
2022/12/20 02:01:35;;;;;;;26.10;18.73;;;1.80;99.90;;;;;;5004916;28;20196;-85
2022/12/20 02:04:03;;;;;;;22.45;16.33;;;1.80;99.90;;;;;;5003832;28;20197;-85
2022/12/20 02:06:30;;;;;;;28.90;18.92;;;1.60;99.90;;;;;;5070407;28;20291;-84
2022/12/20 02:08:59;;;;;;;29.50;18.85;;;1.70;99.90;;;;;;5037510;28;20207;-86
2022/12/20 02:11:28;;;;;;;26.55;19.73;;;1.60;99.90;;;;;;5004617;28;20197;-86
2022/12/20 02:14:13;;;;;;;26.20;16.60;;;1.70;99.90;;;;;;5002613;28;20412;-85
2022/12/20 02:16:48;;;;;;;23.27;16.13;;;1.60;99.90;;;;;;5000472;28;20210;-84
2022/12/20 02:19:42;;;;;;;29.58;18.90;;;1.60;99.90;;;;;;5000629;28;20202;-86
2022/12/20 02:22:33;;;;;;;22.63;19.23;;;1.60;99.90;;;;;;5001433;28;20209;-85
2022/12/20 02:25:12;;;;;;;27.08;18.90;;;1.70;99.90;;;;;;5019477;28;20235;-85
2022/12/20 02:27:53;;;;;;;26.58;18.10;;;1.80;99.90;;;;;;5001047;28;20209;-85
2022/12/20 02:30:22;;;;;;;33.88;20.33;;;1.90;99.90;;;;;;5068402;28;20210;-83
2022/12/20 02:33:00;;;;;;;37.65;22.38;;;1.80;99.90;;;;;;5001380;28;20210;-86
2022/12/20 02:35:31;;;;;;;27.77;17.83;;;1.80;99.90;;;;;;5002420;28;20281;-85
2022/12/20 02:38:01;;;;;;;30.58;18.20;;;2.20;99.90;;;;;;5003111;28;20207;-84
2022/12/20 02:40:39;;;;;;;27.70;17.60;;;1.90;99.90;;;;;;5002612;28;20205;-84
2022/12/20 02:45:59;;;;;;;26.00;18.15;;;2.10;99.90;;;;;;5013749;28;20203;-85
2022/12/20 02:48:29;;;;;;;24.70;16.58;;;1.90;99.90;;;;;;4984725;28;20281;-85
2022/12/20 02:50:59;;;;;;;30.58;18.58;;;1.90;99.90;;;;;;5004741;28;20202;-84
2022/12/20 02:53:28;;;;;;;25.67;18.85;;;2.00;99.90;;;;;;5003796;28;20273;-86
2022/12/20 02:56:08;;;;;;;25.35;18.00;;;1.90;99.90;;;;;;5002954;28;20227;-86
2022/12/20 02:58:50;;;;;;;31.13;19.73;;;2.10;99.90;;;;;;5002488;28;20260;-87
2022/12/20 03:01:29;;;;;;;25.85;19.33;;;2.10;99.90;;;;;;5009047;28;20207;-87
2022/12/20 03:03:58;;;;;;;31.40;17.92;;;2.10;99.90;;;;;;5009532;28;20194;-86
2022/12/20 03:06:25;;;;;;;29.02;17.58;;;2.20;99.90;;;;;;5005008;28;20241;-87
2022/12/20 03:08:52;;;;;;;30.50;18.70;;;2.30;99.90;;;;;;5073125;28;20259;-87
2022/12/20 03:11:19;;;;;;;26.17;18.08;;;2.20;99.90;;;;;;5004898;28;20308;-88
2022/12/20 03:13:46;;;;;;;24.63;18.52;;;2.10;99.90;;;;;;5003373;28;20214;-89
2022/12/20 03:16:14;;;;;;;30.98;19.98;;;2.10;99.90;;;;;;5002287;28;20248;-88
2022/12/20 03:18:41;;;;;;;24.05;16.90;;;2.00;99.90;;;;;;5003003;28;20215;-90
2022/12/20 03:21:08;;;;;;;25.60;18.13;;;2.10;99.90;;;;;;5001088;28;20617;-87
2022/12/20 03:23:35;;;;;;;25.95;17.58;;;2.00;99.90;;;;;;5078188;28;20210;-87
2022/12/20 03:26:02;;;;;;;23.25;17.30;;;2.20;99.90;;;;;;5002364;28;20244;-87
2022/12/20 03:28:29;;;;;;;26.98;17.17;;;2.30;99.90;;;;;;5008609;28;20206;-91
2022/12/20 03:30:57;;;;;;;28.73;17.63;;;2.30;99.90;;;;;;5005256;28;20206;-88
2022/12/20 03:33:25;;;;;;;26.08;18.17;;;2.30;99.90;;;;;;5011170;28;20194;-86
2022/12/20 03:35:51;;;;;;;26.67;17.77;;;2.50;99.90;;;;;;5015358;28;20198;-86
2022/12/20 03:38:19;;;;;;;23.55;16.95;;;2.30;99.90;;;;;;5015326;28;20208;-83
2022/12/20 03:40:46;;;;;;;27.65;17.80;;;2.30;99.90;;;;;;5013987;28;20238;-83
2022/12/20 03:43:13;;;;;;;27.00;18.02;;;2.40;99.90;;;;;;5002223;28;20518;-84
2022/12/20 03:45:40;;;;;;;25.10;19.13;;;2.50;99.90;;;;;;5000168;28;20253;-85
2022/12/20 03:48:07;;;;;;;25.88;17.10;;;2.50;99.90;;;;;;4999287;28;20230;-85
2022/12/20 03:50:36;;;;;;;30.75;19.02;;;2.40;99.90;;;;;;5042506;28;20210;-87
2022/12/20 03:53:03;;;;;;;27.05;19.55;;;2.30;99.90;;;;;;4999787;28;20263;-86
2022/12/20 03:55:30;;;;;;;25.38;16.33;;;2.30;99.90;;;;;;5076863;28;20442;-85
2022/12/20 03:57:58;;;;;;;29.95;19.23;;;2.20;99.90;;;;;;5000156;28;20516;-85
2022/12/20 04:00:25;;;;;;;28.83;18.20;;;2.10;99.90;;;;;;5047909;28;20215;-86
2022/12/20 04:02:52;;;;;;;24.20;17.00;;;2.00;99.90;;;;;;4998774;28;20207;-86
2022/12/20 04:05:20;;;;;;;28.25;17.20;;;2.10;99.90;;;;;;5030894;28;20220;-87
2022/12/20 04:07:46;;;;;;;22.23;17.00;;;2.20;99.90;;;;;;5051197;28;20227;-86
2022/12/20 04:10:13;;;;;;;27.08;18.05;;;2.30;99.90;;;;;;4998349;28;20525;-85
2022/12/20 04:12:40;;;;;;;24.85;15.68;;;2.20;99.90;;;;;;5051251;28;20466;-86
2022/12/20 04:15:08;;;;;;;25.75;18.73;;;2.30;99.90;;;;;;4998469;28;20226;-86
2022/12/20 04:17:34;;;;;;;28.02;16.50;;;2.20;99.90;;;;;;4998191;28;20542;-86
2022/12/20 04:20:17;;;;;;;24.92;17.65;;;2.20;99.90;;;;;;4999981;28;20257;-89
2022/12/20 04:22:49;;;;;;;26.42;16.55;;;2.20;99.90;;;;;;4998365;28;20242;-87
2022/12/20 04:25:19;;;;;;;25.75;17.17;;;2.20;99.90;;;;;;4998211;28;20207;-86
2022/12/20 04:27:46;;;;;;;30.60;18.40;;;2.20;99.90;;;;;;5068920;28;20226;-86
2022/12/20 04:30:13;;;;;;;28.73;17.85;;;2.40;99.90;;;;;;4990485;28;20411;-85
2022/12/20 04:32:40;;;;;;;25.83;17.25;;;2.30;99.90;;;;;;5030608;28;20212;-86
2022/12/20 04:35:07;;;;;;;24.13;17.40;;;2.30;99.90;;;;;;4998435;28;20449;-85
2022/12/20 04:37:34;;;;;;;28.92;20.20;;;2.30;99.90;;;;;;5001951;28;20198;-85
2022/12/20 04:40:01;;;;;;;28.10;19.17;;;2.40;99.90;;;;;;5041221;28;20203;-87
2022/12/20 04:42:28;;;;;;;28.08;18.40;;;2.30;99.90;;;;;;5006225;28;20434;-85
2022/12/20 04:44:55;;;;;;;25.50;17.88;;;2.40;99.90;;;;;;5002808;28;20206;-86
2022/12/20 04:47:22;;;;;;;26.52;18.90;;;2.30;99.90;;;;;;5000955;28;20403;-84
2022/12/20 04:49:49;;;;;;;29.90;21.13;;;3.60;99.90;;;;;;4998697;28;20257;-83
2022/12/20 04:55:05;;;;;;;25.73;17.90;;;2.40;99.90;;;;;;5000781;28;20198;-84
2022/12/20 04:57:33;;;;;;;31.23;20.58;;;2.30;99.90;;;;;;5000073;28;20202;-84
2022/12/20 05:00:00;;;;;;;35.35;19.80;;;2.30;99.90;;;;;;5000176;28;20240;-85
2022/12/20 05:02:27;;;;;;;34.67;20.63;;;2.30;99.90;;;;;;5003927;28;20214;-86
2022/12/20 05:04:55;;;;;;;28.50;21.00;;;2.50;99.90;;;;;;5003807;28;20220;-85
2022/12/20 05:07:21;;;;;;;26.63;19.02;;;2.30;99.90;;;;;;5066498;28;20231;-87
2022/12/20 05:09:49;;;;;;;32.00;22.25;;;2.20;99.90;;;;;;5006673;28;20204;-87
2022/12/20 05:12:15;;;;;;;28.85;20.20;;;2.20;99.90;;;;;;5030592;28;20226;-84
2022/12/20 05:14:42;;;;;;;40.72;23.10;;;2.30;99.90;;;;;;4998932;28;20276;-85
2022/12/20 05:17:09;;;;;;;33.15;21.70;;;2.10;99.90;;;;;;4999482;28;20751;-86
2022/12/20 05:19:36;;;;;;;35.72;20.38;;;2.10;99.90;;;;;;4997227;28;20220;-85
2022/12/20 05:27:37;;;;;;;29.35;20.33;;;2.00;99.90;;;;;;5002694;28;20227;-85
2022/12/20 05:30:04;;;;;;;32.03;22.10;;;2.00;99.90;;;;;;4999522;28;20406;-85
2022/12/20 05:32:31;;;;;;;29.38;19.75;;;1.90;99.90;;;;;;4999320;28;20605;-84
2022/12/20 05:34:58;;;;;;;32.53;22.40;;;1.80;99.90;;;;;;5011518;28;20257;-86
2022/12/20 05:37:25;;;;;;;35.13;21.85;;;2.00;99.90;;;;;;5013053;28;20212;-86
2022/12/20 05:39:52;;;;;;;33.08;21.80;;;1.80;99.90;;;;;;4998589;28;20202;-86
2022/12/20 05:42:19;;;;;;;37.35;22.80;;;2.20;99.90;;;;;;5001364;28;20207;-85
2022/12/20 05:44:46;;;;;;;37.85;21.33;;;2.00;99.90;;;;;;5000619;28;20431;-85
2022/12/20 05:47:14;;;;;;;29.88;22.23;;;2.20;99.90;;;;;;5001188;28;20218;-86
2022/12/20 05:49:41;;;;;;;30.08;20.08;;;2.20;99.90;;;;;;5000239;28;20207;-86
2022/12/20 05:52:08;;;;;;;32.67;20.52;;;2.40;99.90;;;;;;5068008;28;20220;-87
2022/12/20 05:54:35;;;;;;;30.52;21.15;;;2.20;99.90;;;;;;4996800;28;20223;-87
2022/12/20 05:57:02;;;;;;;29.20;19.48;;;2.30;99.90;;;;;;5000453;28;20533;-87
2022/12/20 05:59:29;;;;;;;36.65;23.05;;;2.40;99.90;;;;;;5060693;28;20206;-86
2022/12/20 06:01:56;;;;;;;36.15;21.20;;;2.50;99.90;;;;;;5066103;28;20203;-87
2022/12/20 06:04:23;;;;;;;31.73;20.30;;;2.60;99.90;;;;;;5000430;28;20245;-86
2022/12/20 06:06:51;;;;;;;33.30;21.02;;;2.70;99.90;;;;;;5069476;28;20412;-86
2022/12/20 06:09:18;;;;;;;28.77;20.67;;;2.60;99.90;;;;;;5072054;28;20239;-85
2022/12/20 06:11:46;;;;;;;36.47;23.70;;;2.70;99.90;;;;;;5000586;28;20218;-87
2022/12/20 06:14:13;;;;;;;38.17;23.73;;;2.80;99.90;;;;;;5066772;28;20215;-87
2022/12/20 06:16:40;;;;;;;30.55;20.85;;;2.70;99.90;;;;;;5000511;28;20215;-86
2022/12/20 06:19:08;;;;;;;33.88;20.92;;;2.60;99.90;;;;;;5000701;28;20509;-86
2022/12/20 06:21:34;;;;;;;29.67;21.33;;;2.80;99.90;;;;;;5001690;28;20203;-83
2022/12/20 06:24:02;;;;;;;34.53;23.23;;;2.80;99.90;;;;;;5000443;28;20726;-85
2022/12/20 06:26:35;;;;;;;33.92;22.15;;;2.70;99.90;;;;;;5000255;28;20258;-84
2022/12/20 06:29:12;;;;;;;36.88;22.63;;;2.60;99.90;;;;;;5000541;28;20234;-87
2022/12/20 06:31:43;;;;;;;31.70;20.88;;;2.40;99.90;;;;;;5043843;28;20218;-87
2022/12/20 06:34:10;;;;;;;34.80;22.17;;;2.50;99.90;;;;;;5004833;28;20223;-84
2022/12/20 06:36:38;;;;;;;35.72;24.08;;;2.50;99.90;;;;;;5002486;28;20212;-86
2022/12/20 06:39:08;;;;;;;35.03;23.67;;;2.90;99.90;;;;;;5001035;28;20211;-85
2022/12/20 06:41:39;;;;;;;36.10;22.50;;;3.00;99.90;;;;;;5000958;28;20272;-85
2022/12/20 06:44:08;;;;;;;32.38;22.30;;;2.80;99.90;;;;;;5001062;28;20257;-86
2022/12/20 06:46:37;;;;;;;38.85;23.25;;;2.70;99.90;;;;;;5002060;28;20214;-84
2022/12/20 06:49:05;;;;;;;35.20;23.35;;;2.90;99.90;;;;;;5000843;28;20294;-85
2022/12/20 06:51:33;;;;;;;40.85;23.92;;;3.20;99.90;;;;;;5079774;28;20212;-83
2022/12/20 06:54:02;;;;;;;41.17;26.35;;;3.10;99.90;;;;;;5001980;28;20204;-85
2022/12/20 06:56:30;;;;;;;32.03;21.27;;;2.80;99.90;;;;;;5000804;28;20219;-85
2022/12/20 06:59:06;;;;;;;36.10;24.15;;;2.80;99.90;;;;;;5012421;28;20200;-86
2022/12/20 07:05:15;;;;;;;35.20;21.90;;;3.00;99.90;;;;;;5011308;28;20269;-82
2022/12/20 07:07:43;;;;;;;31.55;23.25;;;3.00;99.90;;;;;;5072687;28;20290;-84
2022/12/20 07:10:11;;;;;;;35.42;21.70;;;3.10;99.90;;;;;;5069498;28;20280;-83
2022/12/20 07:12:39;;;;;;;35.28;22.25;;;3.30;99.90;;;;;;5007568;28;20220;-84
2022/12/20 07:15:14;;;;;;;34.40;22.67;;;3.50;99.90;;;;;;5001158;28;20287;-83
2022/12/20 07:17:42;;;;;;;40.30;22.80;;;3.20;99.90;;;;;;5000804;28;20246;-84
2022/12/20 07:20:11;;;;;;;38.22;25.35;;;3.20;99.90;;;;;;5074396;28;20218;-86
2022/12/20 07:22:40;;;;;;;34.75;21.80;;;3.20;99.90;;;;;;5004504;28;20271;-85
2022/12/20 07:25:09;;;;;;;35.33;23.20;;;3.20;99.90;;;;;;5000022;28;20407;-83
2022/12/20 07:27:37;;;;;;;36.33;23.58;;;3.20;99.90;;;;;;5000208;28;20207;-84
2022/12/20 07:30:05;;;;;;;38.72;23.42;;;3.10;99.90;;;;;;5035261;28;20207;-84
2022/12/20 07:32:33;;;;;;;32.17;21.88;;;3.10;99.90;;;;;;4999506;28;20215;-84
2022/12/20 07:35:00;;;;;;;33.75;21.92;;;3.00;99.90;;;;;;4999184;28;20258;-83
2022/12/20 07:37:30;;;;;;;36.20;21.85;;;2.90;99.90;;;;;;4980677;28;20332;-84
2022/12/20 07:39:57;;;;;;;38.55;23.63;;;2.90;99.90;;;;;;5054418;28;20369;-84
2022/12/20 07:42:26;;;;;;;30.80;21.98;;;3.20;99.90;;;;;;5076369;28;20234;-85
2022/12/20 07:45:06;;;;;;;29.08;20.50;;;3.20;99.90;;;;;;5020365;28;20210;-84
2022/12/20 07:47:34;;;;;;;32.55;20.30;;;3.30;99.90;;;;;;4999805;28;20254;-84
2022/12/20 07:50:04;;;;;;;34.08;20.20;;;3.30;99.90;;;;;;5047514;28;20223;-86
2022/12/20 07:52:33;;;;;;;35.63;23.48;;;3.20;99.90;;;;;;5038729;28;20469;-84
2022/12/20 07:55:03;;;;;;;35.67;22.45;;;3.20;99.90;;;;;;4993512;28;20211;-82
2022/12/20 07:57:36;;;;;;;34.28;23.20;;;3.10;99.90;;;;;;5056194;28;20227;-84
2022/12/20 08:00:07;;;;;;;31.20;20.77;;;3.40;99.90;;;;;;4994996;28;20231;-85
2022/12/20 08:02:39;;;;;;;35.25;23.40;;;3.00;99.90;;;;;;4994719;28;20354;-84
2022/12/20 08:05:09;;;;;;;38.03;23.13;;;3.20;99.90;;;;;;5045137;28;20932;-86
2022/12/20 08:07:38;;;;;;;38.83;24.45;;;3.30;99.90;;;;;;5025411;28;20454;-84
2022/12/20 08:10:08;;;;;;;33.03;22.75;;;3.40;99.90;;;;;;5068260;28;20238;-84
2022/12/20 08:12:44;;;;;;;37.65;22.90;;;3.50;99.90;;;;;;5075412;28;20202;-83
2022/12/20 08:15:18;;;;;;;37.47;23.20;;;3.50;99.90;;;;;;5013639;28;20231;-84
2022/12/20 08:17:45;;;;;;;40.33;23.20;;;3.60;99.90;;;;;;5014389;28;20288;-82
2022/12/20 08:20:19;;;;;;;35.25;21.50;;;3.60;99.90;;;;;;5003731;28;20422;-84
2022/12/20 08:22:46;;;;;;;31.23;23.65;;;3.40;99.90;;;;;;5000819;28;20210;-84
2022/12/20 08:25:15;;;;;;;48.88;25.50;;;3.40;99.90;;;;;;5003440;28;20236;-83
2022/12/20 08:27:43;;;;;;;39.35;23.02;;;3.40;99.90;;;;;;5017531;28;20226;-84
2022/12/20 08:30:11;;;;;;;43.63;24.02;;;3.40;99.90;;;;;;4997513;28;20269;-85
2022/12/20 08:32:38;;;;;;;38.08;22.77;;;3.40;99.90;;;;;;4997545;28;20225;-84
2022/12/20 08:35:06;;;;;;;38.53;22.05;;;3.40;99.90;;;;;;4997063;28;20204;-83
2022/12/20 08:37:36;;;;;;;39.97;24.67;;;3.30;99.90;;;;;;4997408;28;20236;-85
2022/12/20 08:40:06;;;;;;;33.13;21.58;;;3.20;99.90;;;;;;5061824;28;20215;-84
2022/12/20 08:42:33;;;;;;;30.73;20.70;;;3.20;99.90;;;;;;4997375;28;20232;-86
2022/12/20 08:45:01;;;;;;;35.33;22.67;;;3.40;99.90;;;;;;4997503;28;20279;-84
2022/12/20 08:47:29;;;;;;;34.88;22.92;;;3.20;99.90;;;;;;4996738;28;20479;-85
2022/12/20 08:49:56;;;;;;;34.55;24.65;;;3.20;99.90;;;;;;4997401;28;20232;-85
2022/12/20 08:52:33;;;;;;;36.90;24.63;;;3.30;99.90;;;;;;5063269;28;20461;-85
2022/12/20 08:55:00;;;;;;;38.08;21.17;;;3.60;99.90;;;;;;4995861;28;20462;-85
2022/12/20 08:57:31;;;;;;;60.60;33.80;;;3.60;99.90;;;;;;4997461;28;20211;-85
2022/12/20 08:59:58;;;;;;;158.43;69.55;;;3.70;99.90;;;;;;5080366;28;20205;-85
2022/12/20 09:02:25;;;;;;;63.03;30.67;;;3.80;99.90;;;;;;4997396;28;20230;-86
2022/12/20 09:04:53;;;;;;;64.70;32.63;;;3.80;99.90;;;;;;4997851;28;20482;-84
2022/12/20 09:07:19;;;;;;;43.22;26.38;;;3.90;99.90;;;;;;4999660;28;20209;-84
2022/12/20 09:09:46;;;;;;;45.70;26.35;;;3.90;99.90;;;;;;4999535;28;20232;-84
2022/12/20 09:12:19;;;;;;;49.90;26.77;;;4.00;99.90;;;;;;4995387;28;20285;-85
2022/12/20 09:14:46;;;;;;;38.53;25.10;;;3.90;99.90;;;;;;5021808;28;20212;-84
2022/12/20 09:17:15;;;;;;;57.05;29.30;;;3.80;99.90;;;;;;4997019;28;20239;-84
2022/12/20 09:19:42;;;;;;;57.42;30.95;;;3.90;99.90;;;;;;4994930;28;20244;-83
2022/12/20 09:22:09;;;;;;;42.83;23.85;;;4.00;99.90;;;;;;4995105;28;20216;-84
2022/12/20 09:24:36;;;;;;;42.55;26.38;;;4.20;99.90;;;;;;4995310;28;20221;-85
2022/12/20 09:27:03;;;;;;;36.67;26.17;;;4.30;99.90;;;;;;4994691;28;20220;-85
2022/12/20 09:29:30;;;;;;;35.28;22.83;;;4.40;99.90;;;;;;4994189;28;20285;-85
2022/12/20 09:32:01;;;;;;;39.50;25.73;;;4.40;99.90;;;;;;4994991;28;20244;-85
2022/12/20 09:34:28;;;;;;;38.95;23.90;;;4.40;99.90;;;;;;4994058;28;20209;-85
2022/12/20 09:36:55;;;;;;;38.72;24.25;;;4.30;99.90;;;;;;4994219;28;20208;-84
2022/12/20 09:39:22;;;;;;;36.03;25.10;;;4.20;99.90;;;;;;4996283;28;20220;-84
2022/12/20 09:41:49;;;;;;;37.17;22.45;;;4.10;99.90;;;;;;4998662;28;20248;-84
2022/12/20 09:44:29;;;;;;;38.45;24.33;;;4.00;99.90;;;;;;4998138;28;20212;-84
2022/12/20 09:47:04;;;;;;;40.35;26.70;;;4.10;99.90;;;;;;4992754;28;20217;-84
2022/12/20 09:49:40;;;;;;;36.42;24.10;;;4.20;99.90;;;;;;4997155;28;20293;-83
2022/12/20 09:52:32;;;;;;;34.13;24.20;;;4.40;99.90;;;;;;4998584;28;20262;-85
2022/12/20 09:55:32;;;;;;;43.30;25.23;;;4.70;99.90;;;;;;5073062;28;20500;-83
2022/12/20 09:58:08;;;;;;;41.03;24.20;;;4.90;99.90;;;;;;5050277;28;20214;-83
2022/12/20 10:00:45;;;;;;;37.15;24.77;;;5.00;99.90;;;;;;4997220;28;20403;-83
2022/12/20 10:03:23;;;;;;;45.92;25.05;;;5.40;99.90;;;;;;5033808;28;20220;-84
2022/12/20 10:06:14;;;;;;;38.80;23.88;;;5.80;99.90;;;;;;4994051;28;20241;-84
2022/12/20 10:08:55;;;;;;;43.78;26.15;;;6.00;99.90;;;;;;4998926;28;20557;-85
2022/12/20 10:11:41;;;;;;;40.00;25.45;;;6.00;99.90;;;;;;4997644;28;20217;-85
2022/12/20 10:14:38;;;;;;;38.15;25.98;;;5.80;99.90;;;;;;4997938;28;20201;-86
2022/12/20 10:17:14;;;;;;;44.28;27.80;;;5.80;99.90;;;;;;4991345;28;20218;-85
2022/12/20 10:20:07;;;;;;;40.30;26.52;;;5.70;99.90;;;;;;4997469;28;20270;-86
2022/12/20 10:22:45;;;;;;;50.60;29.90;;;6.00;99.90;;;;;;5003997;28;20193;-84
2022/12/20 10:25:17;;;;;;;45.03;27.05;;;5.70;99.90;;;;;;5005149;28;20189;-85
2022/12/20 10:27:46;;;;;;;41.05;26.52;;;5.90;99.90;;;;;;5007900;28;20239;-87
2022/12/20 10:30:16;;;;;;;46.10;26.17;;;6.20;99.90;;;;;;4997130;28;20670;-87
2022/12/20 10:32:45;;;;;;;36.35;25.58;;;6.70;99.90;;;;;;4996834;28;20263;-85
2022/12/20 10:35:37;;;;;;;39.97;26.00;;;6.90;99.90;;;;;;4999002;28;20247;-87
2022/12/20 10:38:05;;;;;;;42.95;26.30;;;6.90;99.90;;;;;;4991115;28;20217;-88
2022/12/20 10:40:45;;;;;;;40.55;25.65;;;6.60;99.90;;;;;;4998468;28;20211;-87
2022/12/20 10:43:43;;;;;;;41.28;27.40;;;6.40;99.90;;;;;;4998975;28;20273;-87
2022/12/20 10:46:12;;;;;;;46.42;26.88;;;6.40;99.90;;;;;;4999658;28;20217;-89
2022/12/20 10:48:41;;;;;;;46.88;28.88;;;6.40;99.90;;;;;;5007002;28;20411;-88
2022/12/20 10:51:09;;;;;;;34.70;23.33;;;6.70;99.90;;;;;;5111151;22;20229;-87
2022/12/20 10:54:02;;;;;;;42.85;24.77;;;6.90;99.90;;;;;;5014655;28;20206;-88
2022/12/20 10:56:37;;;;;;;34.13;24.23;;;6.40;99.90;;;;;;5013781;28;20243;-88
2022/12/20 10:59:16;;;;;;;36.53;24.35;;;6.20;99.90;;;;;;5010912;28;20289;-90
2022/12/20 11:01:46;;;;;;;36.47;24.08;;;6.10;99.90;;;;;;5006126;28;20200;-87
2022/12/20 11:04:40;;;;;;;37.33;25.67;;;6.10;99.90;;;;;;5106689;23;20215;-88
2022/12/20 11:07:26;;;;;;;43.75;26.00;;;6.00;99.90;;;;;;5284823;22;20251;-89
2022/12/20 11:09:56;;;;;;;50.22;27.45;;;6.00;99.90;;;;;;5045629;28;20227;-87
2022/12/20 11:12:23;;;;;;;37.33;25.35;;;6.20;99.90;;;;;;5059723;28;20208;-88
2022/12/20 11:15:11;;;;;;;45.20;27.73;;;6.20;99.90;;;;;;5042610;28;20207;-89
2022/12/20 11:17:47;;;;;;;40.78;25.40;;;6.10;99.90;;;;;;5045090;28;20209;-88
2022/12/20 11:20:25;;;;;;;44.45;25.70;;;6.40;99.90;;;;;;5046243;28;20206;-88
2022/12/20 11:23:12;;;;;;;48.17;30.02;;;6.40;99.90;;;;;;5031985;28;20176;-86
2022/12/20 11:26:21;;;;;;;43.35;25.98;;;6.50;99.90;;;;;;5043096;28;20204;-85
2022/12/20 11:29:28;;;;;;;44.00;27.42;;;6.40;99.90;;;;;;5034739;28;20204;-85
2022/12/20 11:32:28;;;;;;;50.67;30.58;;;6.40;99.90;;;;;;5038290;28;20250;-86
2022/12/20 11:35:02;;;;;;;36.60;25.38;;;6.70;99.90;;;;;;5037750;28;20207;-84
2022/12/20 11:37:43;;;;;;;41.05;26.30;;;6.90;99.90;;;;;;5035995;28;20223;-82
2022/12/20 11:40:26;;;;;;;41.20;26.30;;;7.00;99.90;;;;;;5038117;28;20266;-84
2022/12/20 11:43:15;;;;;;;46.50;26.15;;;6.80;99.90;;;;;;5030547;28;20389;-83
2022/12/20 11:46:13;;;;;;;40.17;26.65;;;6.70;99.90;;;;;;5063133;28;20204;-84
2022/12/20 11:49:00;;;;;;;49.40;25.33;;;6.90;99.90;;;;;;5041751;28;20274;-83
2022/12/20 11:51:42;;;;;;;54.45;27.85;;;6.90;99.90;;;;;;5053400;28;20204;-86
2022/12/20 11:54:21;;;;;;;39.50;21.52;;;6.30;99.90;;;;;;5038876;28;20208;-82
2022/12/20 11:56:51;;;;;;;37.20;23.90;;;6.30;99.90;;;;;;5039683;28;20200;-86
2022/12/20 11:59:36;;;;;;;31.17;20.55;;;6.20;99.90;;;;;;5053937;28;20193;-86
2022/12/20 12:02:13;;;;;;;37.35;20.50;;;6.30;99.90;;;;;;5030594;28;20196;-84
2022/12/20 12:04:56;;;;;;;42.92;24.38;;;6.30;99.90;;;;;;5037602;28;20208;-85
2022/12/20 12:07:35;;;;;;;35.00;23.02;;;6.20;99.90;;;;;;5037061;28;20279;-84
2022/12/20 12:10:16;;;;;;;38.85;22.52;;;6.30;99.90;;;;;;5068354;28;20289;-85
2022/12/20 12:12:56;;;;;;;29.23;21.40;;;6.70;99.90;;;;;;5046258;28;20203;-84
2022/12/20 12:15:49;;;;;;;34.65;22.02;;;6.50;99.90;;;;;;5047579;28;20200;-86
2022/12/20 12:18:21;;;;;;;32.35;22.10;;;6.10;99.90;;;;;;5039343;28;20200;-85
2022/12/20 12:21:20;;;;;;;32.75;22.83;;;6.10;99.90;;;;;;5038200;28;20258;-85
2022/12/20 12:24:11;;;;;;;39.03;22.08;;;6.40;99.90;;;;;;5031183;28;20265;-84
2022/12/20 12:26:39;;;;;;;35.95;22.92;;;6.80;99.90;;;;;;5047269;28;20192;-84
2022/12/20 12:29:12;;;;;;;37.38;22.90;;;6.80;99.90;;;;;;5051326;28;20206;-84
2022/12/20 12:32:02;;;;;;;36.50;23.45;;;6.50;99.90;;;;;;5050616;28;20223;-84
2022/12/20 12:34:53;;;;;;;39.13;24.25;;;6.20;99.90;;;;;;5042283;28;20255;-85
2022/12/20 12:37:45;;;;;;;52.20;26.98;;;5.70;99.90;;;;;;5035085;28;20417;-86
2022/12/20 12:40:18;;;;;;;38.42;22.75;;;5.50;99.90;;;;;;5045902;28;20226;-85
2022/12/20 12:43:00;;;;;;;37.55;22.17;;;5.50;99.90;;;;;;5040868;28;20216;-85
2022/12/20 12:45:50;;;;;;;44.88;26.75;;;5.30;99.90;;;;;;5056404;28;20543;-85
2022/12/20 12:48:37;;;;;;;46.47;29.02;;;5.20;99.90;;;;;;5040146;28;20196;-83
2022/12/20 12:51:05;;;;;;;47.85;30.27;;;5.40;99.90;;;;;;5028435;28;20258;-84
2022/12/20 12:53:53;;;;;;;51.85;29.95;;;5.80;99.90;;;;;;5040726;28;20212;-86
2022/12/20 12:56:26;;;;;;;41.83;23.60;;;5.70;99.90;;;;;;5040175;28;20231;-85
2022/12/20 12:59:33;;;;;;;44.72;25.95;;;5.30;99.90;;;;;;5046541;28;20216;-84
2022/12/20 13:02:12;;;;;;;62.13;34.33;;;5.30;99.90;;;;;;5032305;28;20348;-85
2022/12/20 13:04:58;;;;;;;48.83;29.52;;;5.30;99.90;;;;;;5038871;28;20214;-84
2022/12/20 13:07:31;;;;;;;40.50;26.10;;;5.50;99.90;;;;;;5039395;28;20269;-84
2022/12/20 13:10:00;;;;;;;40.40;28.23;;;5.30;99.90;;;;;;5040494;28;20274;-84
2022/12/20 13:12:39;;;;;;;47.88;27.73;;;5.20;99.90;;;;;;5039681;28;20253;-85
2022/12/20 13:15:21;;;;;;;52.60;32.95;;;5.50;99.90;;;;;;5044627;28;20231;-84
2022/12/20 13:17:52;;;;;;;59.45;33.30;;;5.60;99.90;;;;;;5057035;28;20456;-85